Time;durP1;ratioP1;P1;durP2;ratioP2;P2;SDS_P1;SDS_P2;PMS_P1;PMS_P2;Temp;Humidity;BMP_temperature;BMP_pressure;BME280_temperature;BME280_humidity;BME280_pressure;Samples;Min_cycle;Max_cycle;Signal;HPM_P1;HPM_P2
2024/03/22 00:01:17;;;;;;;32.73;15.37;;;3.30;99.90;;;;;;4176990;28;20355;-54
2024/03/22 00:03:20;;;;;;;38.57;16.70;;;3.30;99.90;;;;;;4178292;28;20320;-57
2024/03/22 00:05:21;;;;;;;31.20;16.00;;;3.30;99.90;;;;;;4177125;28;20278;-57
2024/03/22 00:07:23;;;;;;;37.63;16.83;;;3.20;99.90;;;;;;4162781;28;20286;-56
2024/03/22 00:09:24;;;;;;;33.93;17.10;;;3.20;99.90;;;;;;4161926;28;20666;-55
2024/03/22 00:11:25;;;;;;;30.83;16.20;;;3.20;99.90;;;;;;4175740;28;20324;-58
2024/03/22 00:13:27;;;;;;;33.07;16.17;;;3.20;99.90;;;;;;4177350;28;20673;-57
2024/03/22 00:15:28;;;;;;;37.67;16.00;;;3.20;99.90;;;;;;4177401;28;20275;-55
2024/03/22 00:17:30;;;;;;;33.40;16.30;;;3.10;99.90;;;;;;4177405;28;20270;-56
2024/03/22 00:19:31;;;;;;;31.03;15.57;;;3.10;99.90;;;;;;4176825;28;20677;-53
2024/03/22 00:21:33;;;;;;;35.70;16.23;;;3.10;99.90;;;;;;4178097;28;20607;-53
2024/03/22 00:23:34;;;;;;;32.30;15.50;;;3.10;99.90;;;;;;4176925;28;20379;-55
2024/03/22 00:25:35;;;;;;;27.77;14.33;;;3.10;99.90;;;;;;4177415;28;20278;-55
2024/03/22 00:27:36;;;;;;;37.10;17.53;;;3.10;99.90;;;;;;4174872;28;20714;-57
2024/03/22 00:29:38;;;;;;;38.63;16.13;;;3.00;99.90;;;;;;4164045;28;20263;-55
2024/03/22 00:31:40;;;;;;;32.40;14.77;;;3.00;99.90;;;;;;4160307;28;20738;-52
2024/03/22 00:33:41;;;;;;;23.17;12.27;;;3.00;99.90;;;;;;4161802;28;20420;-55
2024/03/22 00:35:42;;;;;;;30.63;15.33;;;2.90;99.90;;;;;;4159530;28;20274;-55
2024/03/22 00:37:43;;;;;;;29.70;14.83;;;2.90;99.90;;;;;;4161173;28;20385;-55
2024/03/22 00:39:45;;;;;;;26.33;13.23;;;2.90;99.90;;;;;;4168255;28;20344;-55
2024/03/22 00:41:46;;;;;;;34.17;15.17;;;2.90;99.90;;;;;;4161050;28;20635;-55
2024/03/22 00:43:47;;;;;;;26.70;13.00;;;2.90;99.90;;;;;;4160966;28;20337;-55
2024/03/22 00:45:49;;;;;;;26.63;14.30;;;2.90;99.90;;;;;;4161448;28;20263;-56
2024/03/22 00:47:50;;;;;;;31.60;15.47;;;2.90;99.90;;;;;;4173801;28;20665;-56
2024/03/22 00:49:51;;;;;;;30.90;16.30;;;2.90;99.90;;;;;;4176932;28;20316;-56
2024/03/22 00:51:55;;;;;;;27.70;14.00;;;2.90;99.90;;;;;;4162302;28;20291;-56
2024/03/22 00:53:56;;;;;;;26.27;12.67;;;2.90;99.90;;;;;;4161734;28;20279;-54
2024/03/22 00:55:59;;;;;;;37.20;18.23;;;2.90;99.90;;;;;;4173196;28;20332;-55
2024/03/22 00:58:00;;;;;;;34.90;17.17;;;2.90;99.90;;;;;;4176499;28;20289;-54
2024/03/22 01:00:01;;;;;;;38.20;16.80;;;2.80;99.90;;;;;;4177043;28;20348;-54
2024/03/22 01:02:03;;;;;;;39.17;19.90;;;2.80;99.90;;;;;;4165182;28;20341;-56
2024/03/22 01:04:05;;;;;;;43.97;22.30;;;2.80;99.90;;;;;;4175688;28;20278;-59
2024/03/22 01:06:07;;;;;;;48.43;22.90;;;2.80;99.90;;;;;;4175994;28;20324;-58
2024/03/22 01:08:08;;;;;;;52.27;22.27;;;2.80;99.90;;;;;;4162649;28;20306;-59
2024/03/22 01:10:13;;;;;;;46.37;20.93;;;2.80;99.90;;;;;;4159980;28;20263;-52
2024/03/22 01:12:14;;;;;;;43.73;22.10;;;2.80;99.90;;;;;;4160502;28;20328;-55
2024/03/22 01:14:16;;;;;;;41.00;20.30;;;2.80;99.90;;;;;;4160429;28;20263;-53
2024/03/22 01:16:17;;;;;;;41.93;20.73;;;2.70;99.90;;;;;;4160174;28;20328;-57
2024/03/22 01:18:18;;;;;;;40.37;20.60;;;2.70;99.90;;;;;;4160084;28;20271;-53
2024/03/22 01:20:20;;;;;;;38.47;20.10;;;2.70;99.90;;;;;;4174930;28;20347;-55
2024/03/22 01:22:21;;;;;;;41.03;19.77;;;2.70;99.90;;;;;;4177064;28;20294;-52
2024/03/22 01:24:22;;;;;;;38.93;19.57;;;2.70;99.90;;;;;;4176475;28;20734;-54
2024/03/22 01:26:23;;;;;;;35.20;18.37;;;2.70;99.90;;;;;;4176807;28;20332;-55
2024/03/22 01:28:25;;;;;;;37.73;18.80;;;2.70;99.90;;;;;;4176203;28;20328;-53
2024/03/22 01:30:29;;;;;;;36.17;19.10;;;2.70;99.90;;;;;;4177363;28;20262;-50
2024/03/22 01:32:31;;;;;;;37.70;18.83;;;2.60;99.90;;;;;;4176238;28;20365;-57
2024/03/22 01:34:32;;;;;;;45.13;19.43;;;2.70;99.90;;;;;;4177507;28;20764;-54
2024/03/22 01:36:33;;;;;;;38.93;19.63;;;2.60;99.90;;;;;;4175790;28;20270;-56
2024/03/22 01:38:34;;;;;;;35.13;18.57;;;2.70;99.90;;;;;;4177033;28;20765;-56
2024/03/22 01:40:36;;;;;;;38.37;19.07;;;2.60;99.90;;;;;;4175833;28;20262;-58
2024/03/22 01:42:37;;;;;;;38.07;18.30;;;2.60;99.90;;;;;;4176829;28;20312;-53
2024/03/22 01:44:38;;;;;;;34.63;17.87;;;2.60;99.90;;;;;;4176415;28;20340;-52
2024/03/22 01:46:41;;;;;;;35.30;19.27;;;2.60;99.90;;;;;;4176871;28;20274;-51
2024/03/22 01:48:42;;;;;;;34.40;17.63;;;2.60;99.90;;;;;;4179587;28;20328;-57
2024/03/22 01:50:43;;;;;;;38.63;19.47;;;2.60;99.90;;;;;;4179256;28;20415;-53
2024/03/22 01:52:45;;;;;;;33.03;18.10;;;2.60;99.90;;;;;;4179645;28;20275;-54
2024/03/22 01:54:46;;;;;;;33.57;19.07;;;2.60;99.90;;;;;;4179199;28;20262;-55
2024/03/22 01:56:48;;;;;;;34.67;17.60;;;2.60;99.90;;;;;;4194396;28;20339;-54
2024/03/22 01:58:49;;;;;;;41.73;19.33;;;2.60;99.90;;;;;;4195657;28;20265;-53
2024/03/22 02:00:50;;;;;;;38.27;18.80;;;2.60;99.90;;;;;;4195887;28;21574;-52
2024/03/22 02:02:51;;;;;;;33.50;17.40;;;2.60;99.90;;;;;;4194452;28;20289;-55
2024/03/22 02:04:53;;;;;;;33.67;17.73;;;2.50;99.90;;;;;;4162388;28;20328;-55
2024/03/22 02:06:54;;;;;;;37.17;17.53;;;2.50;99.90;;;;;;4162525;28;20328;-55
2024/03/22 02:08:57;;;;;;;36.63;16.87;;;2.50;99.90;;;;;;4163402;28;20278;-52
2024/03/22 02:10:58;;;;;;;33.20;17.27;;;2.50;99.90;;;;;;4173277;28;20286;-53
2024/03/22 02:12:59;;;;;;;35.23;17.10;;;2.40;99.90;;;;;;4178616;28;20321;-54
2024/03/22 02:15:02;;;;;;;33.47;17.17;;;2.40;99.90;;;;;;4164301;28;20259;-54
2024/03/22 02:17:03;;;;;;;37.30;19.30;;;2.40;99.90;;;;;;4162219;28;20282;-53
2024/03/22 02:19:05;;;;;;;31.43;18.00;;;2.30;99.90;;;;;;4170254;28;20274;-54
2024/03/22 02:21:06;;;;;;;36.73;17.83;;;2.30;99.90;;;;;;4179126;28;20278;-56
2024/03/22 02:23:07;;;;;;;38.30;19.07;;;2.20;99.90;;;;;;4178865;28;20332;-58
2024/03/22 02:25:08;;;;;;;38.50;17.93;;;2.20;99.90;;;;;;4178541;28;20274;-54
2024/03/22 02:27:10;;;;;;;37.07;18.83;;;2.20;99.90;;;;;;4179824;28;20823;-59
2024/03/22 02:29:11;;;;;;;39.47;19.60;;;2.20;99.90;;;;;;4178554;28;20274;-54
2024/03/22 02:31:12;;;;;;;36.73;19.87;;;2.20;99.90;;;;;;4179562;28;20392;-54
2024/03/22 02:33:13;;;;;;;40.00;19.07;;;2.10;99.90;;;;;;4178657;28;20258;-59
2024/03/22 02:35:15;;;;;;;35.00;19.30;;;2.10;99.90;;;;;;4179854;28;20270;-54
2024/03/22 02:37:16;;;;;;;41.47;19.57;;;2.10;99.90;;;;;;4178227;28;20270;-55
2024/03/22 02:39:18;;;;;;;41.10;19.50;;;2.10;99.90;;;;;;4177695;28;20270;-54
2024/03/22 02:41:19;;;;;;;35.33;18.33;;;2.10;99.90;;;;;;4169615;28;21035;-58
2024/03/22 02:43:21;;;;;;;40.17;17.93;;;2.10;99.90;;;;;;4179645;28;20363;-54
2024/03/22 02:45:22;;;;;;;38.83;17.57;;;2.10;99.90;;;;;;4178754;28;20262;-55
2024/03/22 02:47:23;;;;;;;35.90;18.40;;;2.10;99.90;;;;;;4179001;28;20285;-56
2024/03/22 02:49:25;;;;;;;41.20;20.30;;;2.10;99.90;;;;;;4178532;28;20343;-56
2024/03/22 02:51:27;;;;;;;36.90;19.53;;;2.00;99.90;;;;;;4179014;28;20290;-54
2024/03/22 02:53:28;;;;;;;38.87;19.17;;;2.00;99.90;;;;;;4178999;28;20270;-57
2024/03/22 02:55:29;;;;;;;42.47;18.93;;;1.90;99.90;;;;;;4178162;28;20274;-56
2024/03/22 02:57:31;;;;;;;41.50;19.33;;;1.90;99.90;;;;;;4178629;28;20274;-55
2024/03/22 02:59:32;;;;;;;36.30;17.80;;;1.90;99.90;;;;;;4176601;28;20826;-54
2024/03/22 03:01:33;;;;;;;35.77;17.43;;;1.90;99.90;;;;;;4178953;28;20290;-53
2024/03/22 03:03:34;;;;;;;32.13;17.17;;;1.90;99.90;;;;;;4178165;28;20302;-55
2024/03/22 03:05:36;;;;;;;32.77;16.17;;;1.90;99.90;;;;;;4179441;28;20274;-57
2024/03/22 03:07:37;;;;;;;34.43;15.77;;;1.80;99.90;;;;;;4177230;28;20770;-55
2024/03/22 03:09:38;;;;;;;34.70;16.73;;;1.70;99.90;;;;;;4178981;28;20320;-52
2024/03/22 03:11:40;;;;;;;35.67;16.47;;;1.70;99.90;;;;;;4167671;28;20393;-56
2024/03/22 03:13:41;;;;;;;34.73;17.47;;;1.60;99.90;;;;;;4162653;28;20325;-56
2024/03/22 03:15:43;;;;;;;43.23;18.13;;;1.60;99.90;;;;;;4161618;28;20804;-55
2024/03/22 03:17:44;;;;;;;32.23;17.00;;;1.60;99.90;;;;;;4162077;28;20287;-56
2024/03/22 03:19:45;;;;;;;38.67;18.27;;;1.50;99.90;;;;;;4161195;28;20251;-55
2024/03/22 03:21:46;;;;;;;40.13;18.20;;;1.50;99.90;;;;;;4166755;28;20656;-55
2024/03/22 03:23:48;;;;;;;33.07;17.23;;;1.40;99.90;;;;;;4168904;28;20668;-57
2024/03/22 03:25:49;;;;;;;45.80;18.83;;;1.40;99.90;;;;;;4161099;28;20267;-53
2024/03/22 03:27:50;;;;;;;34.17;17.93;;;1.40;99.90;;;;;;4171106;28;20300;-57
2024/03/22 03:29:52;;;;;;;40.33;19.40;;;1.40;99.90;;;;;;4177616;28;20338;-55
2024/03/22 03:31:53;;;;;;;34.57;17.47;;;1.30;99.90;;;;;;4178378;28;20273;-54
2024/03/22 03:33:54;;;;;;;37.57;19.67;;;1.30;99.90;;;;;;4177696;28;20262;-57
2024/03/22 03:35:55;;;;;;;38.17;18.57;;;1.30;99.90;;;;;;4178751;28;20262;-57
2024/03/22 03:37:56;;;;;;;34.93;18.00;;;1.30;99.90;;;;;;4177906;28;20308;-55
2024/03/22 03:39:58;;;;;;;43.57;19.93;;;1.30;99.90;;;;;;4170162;28;20275;-54
2024/03/22 03:41:59;;;;;;;45.40;20.43;;;1.30;99.90;;;;;;4160948;28;20631;-54
2024/03/22 03:44:00;;;;;;;42.40;20.10;;;1.30;99.90;;;;;;4162088;28;20295;-54
2024/03/22 03:46:02;;;;;;;35.47;18.03;;;1.40;99.90;;;;;;4161423;28;20682;-57
2024/03/22 03:48:04;;;;;;;38.10;18.27;;;1.40;99.90;;;;;;4161697;28;20754;-56
2024/03/22 03:50:05;;;;;;;44.47;18.57;;;1.50;99.90;;;;;;4161130;28;20271;-53
2024/03/22 03:52:06;;;;;;;36.07;18.80;;;1.50;99.90;;;;;;4161226;28;20305;-59
2024/03/22 03:54:07;;;;;;;55.70;27.27;;;1.50;99.90;;;;;;4161742;28;20317;-60
2024/03/22 03:56:09;;;;;;;45.83;24.23;;;1.50;99.90;;;;;;4160955;28;20344;-55
2024/03/22 03:58:10;;;;;;;52.43;26.43;;;1.50;99.90;;;;;;4161695;28;20320;-56
2024/03/22 04:00:12;;;;;;;51.97;24.90;;;1.40;99.90;;;;;;4160497;28;20860;-57
2024/03/22 04:02:13;;;;;;;44.10;20.57;;;1.40;99.90;;;;;;4162207;28;20267;-54
2024/03/22 04:04:14;;;;;;;47.23;20.93;;;1.40;99.90;;;;;;4160572;28;20357;-56
2024/03/22 04:06:15;;;;;;;36.53;19.17;;;1.40;99.90;;;;;;4161542;28;20333;-56
2024/03/22 04:08:17;;;;;;;39.47;16.80;;;1.30;99.90;;;;;;4160599;28;20346;-55
2024/03/22 04:10:18;;;;;;;33.87;16.17;;;1.20;99.90;;;;;;4161257;28;20840;-58
2024/03/22 04:12:19;;;;;;;31.67;15.07;;;1.20;99.90;;;;;;4160327;28;20721;-55
2024/03/22 04:14:20;;;;;;;31.77;15.93;;;1.20;99.90;;;;;;4161437;28;20358;-51
2024/03/22 04:16:22;;;;;;;41.10;17.83;;;1.10;99.90;;;;;;4168269;28;20323;-57
2024/03/22 04:18:23;;;;;;;30.23;14.87;;;1.10;99.90;;;;;;4177729;28;20286;-56
2024/03/22 04:20:24;;;;;;;32.13;15.70;;;1.20;99.90;;;;;;4177241;28;20779;-57
2024/03/22 04:22:26;;;;;;;33.77;16.17;;;1.20;99.90;;;;;;4177692;28;20340;-55
2024/03/22 04:24:27;;;;;;;34.63;15.97;;;1.30;99.90;;;;;;4177176;28;20294;-54
2024/03/22 04:26:28;;;;;;;33.13;15.73;;;1.30;99.90;;;;;;4173932;28;20729;-56
2024/03/22 04:28:30;;;;;;;30.83;15.83;;;1.30;99.90;;;;;;4161380;28;20293;-56
2024/03/22 04:30:31;;;;;;;36.63;18.33;;;1.30;99.90;;;;;;4165771;28;20254;-52
2024/03/22 04:32:32;;;;;;;35.60;17.17;;;1.40;99.90;;;;;;4166951;28;20320;-55
2024/03/22 04:34:33;;;;;;;38.53;18.63;;;1.40;99.90;;;;;;4165903;28;20325;-55
2024/03/22 04:36:35;;;;;;;36.67;18.73;;;1.40;99.90;;;;;;4161023;28;20278;-54
2024/03/22 04:38:36;;;;;;;36.20;18.87;;;1.40;99.90;;;;;;4160127;28;20663;-58
2024/03/22 04:40:37;;;;;;;40.03;18.90;;;1.40;99.90;;;;;;4168018;28;20831;-55
2024/03/22 04:42:39;;;;;;;37.47;17.83;;;1.50;99.90;;;;;;4175966;28;20286;-55
2024/03/22 04:44:40;;;;;;;41.43;17.07;;;1.50;99.90;;;;;;4177008;28;20347;-56
2024/03/22 04:46:41;;;;;;;40.77;18.80;;;1.60;99.90;;;;;;4170533;28;20270;-56
2024/03/22 04:48:44;;;;;;;51.00;21.77;;;1.60;99.90;;;;;;4177455;28;20270;-57
2024/03/22 04:50:47;;;;;;;46.73;20.67;;;1.70;99.90;;;;;;4176111;28;20300;-57
2024/03/22 04:52:48;;;;;;;39.27;20.17;;;1.70;99.90;;;;;;4177245;28;20266;-57
2024/03/22 04:54:50;;;;;;;41.00;18.70;;;1.60;99.90;;;;;;4176140;28;20266;-57
2024/03/22 04:56:51;;;;;;;44.87;20.20;;;1.70;99.90;;;;;;4176342;28;20270;-57
2024/03/22 04:58:52;;;;;;;52.03;20.27;;;1.70;99.90;;;;;;4177171;28;20259;-54
2024/03/22 05:00:57;;;;;;;39.33;19.13;;;1.60;99.90;;;;;;4165454;28;20308;-58
2024/03/22 05:02:58;;;;;;;36.37;17.77;;;1.70;99.90;;;;;;4170141;28;20339;-54
2024/03/22 05:05:00;;;;;;;34.80;16.83;;;1.70;99.90;;;;;;4176832;28;20591;-58
2024/03/22 05:07:03;;;;;;;38.83;18.87;;;1.80;99.90;;;;;;4170329;28;20654;-56
2024/03/22 05:09:04;;;;;;;38.63;17.40;;;2.00;99.90;;;;;;4159722;28;20270;-52
2024/03/22 05:11:05;;;;;;;39.83;18.13;;;2.50;99.90;;;;;;4170625;28;20288;-59
2024/03/22 05:13:07;;;;;;;36.17;17.93;;;2.80;99.90;;;;;;4176386;28;20779;-56
2024/03/22 05:15:08;;;;;;;46.13;18.93;;;3.00;99.90;;;;;;4176761;28;20265;-56
2024/03/22 05:17:09;;;;;;;44.13;19.17;;;3.00;99.90;;;;;;4159837;28;20262;-57
2024/03/22 05:19:11;;;;;;;42.67;20.20;;;2.90;99.90;;;;;;4160665;28;20286;-55
2024/03/22 05:21:12;;;;;;;39.53;19.70;;;2.90;99.90;;;;;;4160939;28;20286;-56
2024/03/22 05:23:13;;;;;;;29.90;16.53;;;3.00;99.90;;;;;;4161908;28;20290;-58
2024/03/22 05:25:15;;;;;;;46.33;16.40;;;3.30;99.90;;;;;;4163154;28;20271;-58
2024/03/22 05:27:17;;;;;;;27.40;15.00;;;3.50;99.90;;;;;;4163483;28;20337;-54
2024/03/22 05:29:18;;;;;;;31.27;17.07;;;3.70;99.90;;;;;;4163113;28;20271;-54
2024/03/22 05:31:20;;;;;;;34.97;16.37;;;4.10;99.90;;;;;;4174028;28;20673;-60
2024/03/22 05:33:21;;;;;;;33.07;17.70;;;4.50;99.90;;;;;;4179778;28;20270;-55
2024/03/22 05:35:22;;;;;;;40.27;18.23;;;5.20;99.90;;;;;;4170114;28;20278;-56
2024/03/22 05:37:24;;;;;;;33.80;17.87;;;5.80;99.90;;;;;;4165380;28;20329;-58
2024/03/22 05:39:25;;;;;;;35.33;17.87;;;6.20;99.90;;;;;;4173851;28;20367;-57
2024/03/22 05:41:26;;;;;;;40.53;18.93;;;6.70;99.90;;;;;;4180182;28;20702;-56
2024/03/22 05:43:27;;;;;;;43.20;19.70;;;7.20;99.90;;;;;;4179306;28;20456;-57
2024/03/22 05:45:28;;;;;;;35.87;18.67;;;7.60;99.90;;;;;;4180201;28;20091;-56
2024/03/22 05:47:31;;;;;;;35.43;18.60;;;8.00;99.90;;;;;;4179243;28;20083;-52
2024/03/22 05:49:32;;;;;;;42.17;20.13;;;8.30;99.90;;;;;;4179893;28;20045;-53
2024/03/22 05:51:33;;;;;;;42.30;19.83;;;8.40;99.90;;;;;;4179295;28;20075;-53
2024/03/22 05:53:34;;;;;;;41.03;20.57;;;8.40;99.90;;;;;;4180029;28;20033;-56
2024/03/22 05:55:36;;;;;;;33.70;19.70;;;8.70;99.90;;;;;;4178851;28;20033;-56
2024/03/22 05:57:37;;;;;;;40.20;18.83;;;9.00;99.90;;;;;;4179687;28;20029;-53
2024/03/22 05:59:38;;;;;;;36.83;18.03;;;9.50;99.90;;;;;;4179121;28;20079;-55
2024/03/22 06:01:39;;;;;;;37.73;18.77;;;10.10;99.90;;;;;;4179219;28;20045;-55
2024/03/22 06:03:41;;;;;;;36.37;19.20;;;10.50;99.90;;;;;;4179823;28;20085;-58
2024/03/22 06:05:42;;;;;;;42.40;20.53;;;10.70;99.90;;;;;;4178927;28;20083;-55
2024/03/22 06:07:45;;;;;;;52.90;25.63;;;10.70;99.70;;;;;;4179999;28;20053;-55
2024/03/22 06:09:47;;;;;;;55.63;27.53;;;11.00;99.30;;;;;;4178418;28;20052;-55
2024/03/22 06:11:48;;;;;;;40.17;21.47;;;11.00;98.60;;;;;;4179880;28;20040;-53
2024/03/22 06:13:50;;;;;;;35.23;18.23;;;11.10;98.40;;;;;;4178834;28;20032;-52
2024/03/22 06:15:52;;;;;;;32.07;19.00;;;11.00;98.50;;;;;;4179892;28;20045;-55
2024/03/22 06:17:53;;;;;;;32.87;17.80;;;10.80;97.90;;;;;;4178407;28;20037;-54
2024/03/22 06:19:54;;;;;;;35.33;18.77;;;10.90;97.70;;;;;;4179643;28;20098;-55
2024/03/22 06:21:56;;;;;;;33.70;18.20;;;11.00;97.20;;;;;;4177780;28;20049;-54
2024/03/22 06:23:57;;;;;;;33.23;18.63;;;10.70;97.10;;;;;;4179390;28;20033;-55
2024/03/22 06:25:59;;;;;;;35.13;18.10;;;10.70;96.90;;;;;;4178608;28;20037;-58
2024/03/22 06:28:00;;;;;;;30.10;18.10;;;10.70;96.70;;;;;;4178663;28;20103;-50
2024/03/22 06:30:01;;;;;;;34.93;16.87;;;10.90;96.50;;;;;;4178560;28;20371;-56
2024/03/22 06:32:03;;;;;;;32.40;17.80;;;11.00;96.20;;;;;;4178164;28;20166;-56
2024/03/22 06:34:04;;;;;;;26.97;15.70;;;11.50;95.80;;;;;;4177471;28;20107;-53
2024/03/22 06:36:05;;;;;;;25.53;14.50;;;11.80;95.30;;;;;;4178100;28;20029;-57
2024/03/22 06:38:07;;;;;;;24.03;13.90;;;12.20;94.70;;;;;;4179435;28;20037;-55
2024/03/22 06:40:09;;;;;;;32.70;14.90;;;12.20;94.20;;;;;;4177729;28;20068;-53
2024/03/22 06:42:11;;;;;;;33.13;15.70;;;12.40;93.90;;;;;;4179271;28;20079;-57
2024/03/22 06:44:13;;;;;;;28.27;15.47;;;12.80;93.60;;;;;;4178114;28;20053;-54
2024/03/22 06:46:15;;;;;;;25.83;13.07;;;13.30;93.20;;;;;;4179749;28;20053;-55
2024/03/22 06:48:16;;;;;;;25.93;13.87;;;13.70;92.50;;;;;;4178211;28;20045;-54
2024/03/22 06:50:17;;;;;;;23.47;12.30;;;14.10;92.00;;;;;;4178991;28;20036;-58
2024/03/22 06:52:19;;;;;;;26.40;13.77;;;14.50;91.30;;;;;;4178142;28;20029;-50
2024/03/22 06:54:21;;;;;;;26.20;13.37;;;14.20;90.80;;;;;;4179218;28;20052;-52
2024/03/22 06:56:23;;;;;;;25.10;13.73;;;13.80;90.70;;;;;;4178523;28;20083;-55
2024/03/22 06:58:25;;;;;;;25.57;13.47;;;13.30;91.00;;;;;;4178414;28;20033;-54
2024/03/22 07:00:26;;;;;;;26.30;14.03;;;12.90;91.30;;;;;;4178156;28;20393;-54
2024/03/22 07:02:27;;;;;;;27.83;14.20;;;12.90;91.50;;;;;;4178338;28;20041;-52
2024/03/22 07:04:28;;;;;;;30.83;13.30;;;12.80;91.40;;;;;;4178308;28;20094;-54
2024/03/22 07:06:30;;;;;;;25.00;13.13;;;12.80;91.30;;;;;;4178129;28;20543;-54
2024/03/22 07:08:31;;;;;;;25.63;14.23;;;12.40;91.10;;;;;;4178920;28;20048;-55
2024/03/22 07:10:33;;;;;;;26.73;15.50;;;12.20;91.60;;;;;;4177769;28;20045;-58
2024/03/22 07:12:34;;;;;;;24.00;14.27;;;12.30;91.60;;;;;;4179023;28;20110;-53
2024/03/22 07:14:35;;;;;;;25.57;15.20;;;12.40;91.50;;;;;;4177305;28;20045;-54
2024/03/22 07:16:37;;;;;;;27.73;16.57;;;12.50;91.80;;;;;;4178925;28;20083;-54
2024/03/22 07:18:38;;;;;;;24.73;16.43;;;12.70;91.30;;;;;;4177241;28;20086;-53
2024/03/22 07:20:39;;;;;;;30.37;14.90;;;12.70;91.30;;;;;;4178726;28;20049;-57
2024/03/22 07:22:41;;;;;;;31.10;14.90;;;11.80;91.20;;;;;;4177292;28;20033;-57
2024/03/22 07:24:42;;;;;;;25.60;15.13;;;11.40;92.10;;;;;;4178892;28;20049;-59
2024/03/22 07:26:43;;;;;;;27.70;15.17;;;11.10;92.40;;;;;;4177953;28;20099;-55
2024/03/22 07:28:44;;;;;;;33.20;14.10;;;11.40;92.40;;;;;;4178489;28;20045;-56
2024/03/22 07:30:46;;;;;;;27.80;14.60;;;11.10;92.50;;;;;;4177810;28;20041;-57
2024/03/22 07:32:47;;;;;;;27.47;14.03;;;10.70;92.80;;;;;;4178295;28;20091;-54
2024/03/22 07:34:48;;;;;;;22.60;13.17;;;10.70;93.10;;;;;;4178357;28;20025;-56
2024/03/22 07:36:50;;;;;;;20.27;10.73;;;10.60;93.10;;;;;;4177964;28;20447;-54
2024/03/22 07:38:51;;;;;;;25.33;11.67;;;10.40;93.00;;;;;;4178646;28;20417;-54
2024/03/22 07:40:52;;;;;;;23.90;12.97;;;10.30;93.10;;;;;;4177495;28;20467;-52
2024/03/22 07:42:54;;;;;;;21.90;13.47;;;10.20;93.40;;;;;;4178302;28;20037;-55
2024/03/22 07:44:55;;;;;;;23.23;12.17;;;10.00;93.80;;;;;;4176469;28;20068;-54
2024/03/22 07:46:56;;;;;;;21.63;12.83;;;10.10;93.80;;;;;;4178528;28;20170;-56
2024/03/22 07:48:57;;;;;;;25.37;12.70;;;10.20;93.70;;;;;;4177445;28;20419;-55
2024/03/22 07:51:00;;;;;;;17.40;10.07;;;10.20;93.70;;;;;;4178611;28;20536;-56
2024/03/22 07:53:01;;;;;;;21.27;10.57;;;10.20;93.60;;;;;;4177290;28;20041;-59
2024/03/22 07:55:03;;;;;;;17.20;10.40;;;10.30;93.40;;;;;;4178048;28;20148;-57
2024/03/22 07:57:04;;;;;;;19.53;8.87;;;10.70;92.90;;;;;;4176616;28;20440;-52
2024/03/22 07:59:05;;;;;;;14.43;7.60;;;10.30;92.70;;;;;;4177332;28;20094;-55
2024/03/22 08:01:07;;;;;;;15.03;8.97;;;10.50;92.70;;;;;;4176029;28;20044;-55
2024/03/22 08:03:15;;;;;;;14.50;8.13;;;10.90;92.70;;;;;;4177273;28;20114;-53
2024/03/22 08:05:16;;;;;;;19.63;9.23;;;10.90;92.00;;;;;;4176792;28;20469;-57
2024/03/22 08:07:17;;;;;;;14.70;8.13;;;10.80;92.40;;;;;;4176888;28;20397;-55
2024/03/22 08:09:19;;;;;;;18.80;8.13;;;10.70;92.50;;;;;;4177176;28;20486;-57
2024/03/22 08:11:20;;;;;;;17.10;8.73;;;10.90;92.90;;;;;;4176879;28;20040;-53
2024/03/22 08:13:22;;;;;;;13.17;7.90;;;11.20;92.60;;;;;;4177713;28;20025;-61
2024/03/22 08:15:23;;;;;;;14.20;7.83;;;11.60;92.00;;;;;;4176707;28;20502;-56
2024/03/22 08:17:24;;;;;;;11.93;7.67;;;12.00;91.70;;;;;;4177627;28;20493;-55
2024/03/22 08:19:25;;;;;;;11.93;6.93;;;12.00;91.40;;;;;;4176243;28;20041;-54
2024/03/22 08:21:27;;;;;;;13.07;6.80;;;12.10;91.20;;;;;;4177509;28;20029;-56
2024/03/22 08:23:28;;;;;;;10.77;6.30;;;12.20;90.90;;;;;;4176704;28;20106;-57
2024/03/22 08:25:30;;;;;;;10.23;6.83;;;12.10;90.80;;;;;;4177232;28;20053;-56
2024/03/22 08:27:31;;;;;;;10.77;6.70;;;11.80;91.30;;;;;;4176047;28;20041;-54
2024/03/22 08:29:32;;;;;;;11.40;7.00;;;11.60;91.40;;;;;;4177458;28;20420;-56
2024/03/22 08:31:33;;;;;;;12.70;6.90;;;11.70;91.40;;;;;;4176537;28;20071;-54
2024/03/22 08:33:34;;;;;;;13.33;7.30;;;11.90;91.30;;;;;;4176824;28;20041;-53
2024/03/22 08:35:36;;;;;;;14.57;7.47;;;12.20;91.20;;;;;;4176769;28;20485;-57
2024/03/22 08:37:37;;;;;;;15.57;7.47;;;12.40;91.00;;;;;;4176482;28;20059;-57
2024/03/22 08:39:38;;;;;;;10.47;7.03;;;12.60;90.60;;;;;;4177396;28;20440;-52
2024/03/22 08:41:39;;;;;;;16.13;7.80;;;12.70;90.50;;;;;;4176497;28;20033;-54
2024/03/22 08:43:41;;;;;;;11.43;7.20;;;12.70;90.30;;;;;;4175486;28;20052;-55
2024/03/22 08:45:42;;;;;;;14.10;7.00;;;12.60;90.30;;;;;;4176051;28;20056;-53
2024/03/22 08:47:45;;;;;;;11.13;6.97;;;12.50;90.50;;;;;;4177487;28;20037;-58
2024/03/22 08:49:47;;;;;;;12.80;7.10;;;12.30;90.30;;;;;;4176270;28;20106;-56
2024/03/22 08:51:48;;;;;;;9.70;6.50;;;12.40;90.50;;;;;;4177234;28;20052;-58
2024/03/22 08:53:49;;;;;;;12.03;7.60;;;12.50;90.30;;;;;;4176502;28;20110;-57
2024/03/22 08:55:50;;;;;;;11.93;6.70;;;12.50;90.30;;;;;;4177119;28;20049;-55
2024/03/22 08:57:52;;;;;;;12.23;6.67;;;12.50;90.40;;;;;;4175095;28;20106;-59
2024/03/22 08:59:53;;;;;;;12.50;7.23;;;12.50;90.10;;;;;;4176887;28;20056;-55
2024/03/22 09:01:54;;;;;;;13.23;7.77;;;12.60;90.10;;;;;;4176458;28;20485;-55
2024/03/22 09:03:55;;;;;;;13.43;6.63;;;12.70;90.30;;;;;;4176950;28;20032;-55
2024/03/22 09:05:57;;;;;;;13.03;7.30;;;12.80;90.00;;;;;;4175898;28;20555;-59
2024/03/22 09:07:59;;;;;;;14.13;7.37;;;12.50;90.10;;;;;;4176095;28;20049;-56
2024/03/22 09:10:00;;;;;;;13.37;7.70;;;12.30;90.10;;;;;;4176362;28;20032;-58
2024/03/22 09:12:02;;;;;;;13.00;7.03;;;12.20;90.20;;;;;;4175716;28;20503;-55
2024/03/22 09:14:03;;;;;;;11.60;6.47;;;12.10;89.50;;;;;;4177133;28;20066;-57
2024/03/22 09:16:05;;;;;;;10.70;7.10;;;12.30;89.40;;;;;;4175457;28;20063;-57
2024/03/22 09:18:06;;;;;;;13.33;7.80;;;12.50;89.70;;;;;;4176805;28;20041;-55
2024/03/22 09:20:08;;;;;;;11.93;6.60;;;12.90;89.20;;;;;;4175415;28;20037;-55
2024/03/22 09:22:09;;;;;;;16.30;7.43;;;13.30;88.60;;;;;;4176334;28;20167;-56
2024/03/22 09:24:11;;;;;;;13.90;6.77;;;13.80;88.40;;;;;;4175111;28;20044;-54
2024/03/22 09:26:12;;;;;;;13.23;7.30;;;14.30;87.70;;;;;;4175040;28;20045;-54
2024/03/22 09:28:14;;;;;;;15.73;6.30;;;14.40;87.00;;;;;;4175340;28;20087;-57
2024/03/22 09:30:15;;;;;;;13.63;7.40;;;14.30;86.30;;;;;;4176382;28;20414;-53
2024/03/22 09:32:16;;;;;;;17.07;6.90;;;14.20;86.50;;;;;;4174839;28;20037;-57
2024/03/22 09:34:18;;;;;;;11.80;6.60;;;14.40;86.20;;;;;;4176228;28;20420;-54
2024/03/22 09:36:19;;;;;;;13.60;6.43;;;14.50;86.10;;;;;;4175985;28;20036;-57
2024/03/22 09:38:20;;;;;;;16.47;6.80;;;14.80;85.90;;;;;;4176511;28;20025;-57
2024/03/22 09:40:22;;;;;;;9.40;6.50;;;14.70;85.40;;;;;;4175879;28;20094;-57
2024/03/22 09:42:25;;;;;;;14.60;6.83;;;14.40;85.30;;;;;;4175781;28;20056;-56
2024/03/22 09:44:27;;;;;;;13.53;6.93;;;14.10;85.50;;;;;;4176729;28;20111;-57
2024/03/22 09:46:29;;;;;;;12.00;6.73;;;13.90;85.90;;;;;;4175825;28;20091;-54
2024/03/22 09:48:33;;;;;;;10.33;6.03;;;14.00;86.20;;;;;;4176823;28;20094;-55
2024/03/22 09:50:35;;;;;;;11.50;6.50;;;14.20;85.90;;;;;;4174284;28;20064;-59
2024/03/22 09:52:38;;;;;;;9.53;6.13;;;14.20;85.70;;;;;;4177045;28;20090;-55
2024/03/22 09:54:41;;;;;;;7.83;5.53;;;14.10;85.00;;;;;;4175929;28;20037;-57
2024/03/22 09:56:47;;;;;;;9.83;5.40;;;14.00;85.30;;;;;;4176637;28;20142;-54
2024/03/22 09:58:49;;;;;;;10.93;6.17;;;14.00;85.20;;;;;;4175399;28;20037;-57
2024/03/22 10:00:50;;;;;;;12.27;7.13;;;13.80;85.40;;;;;;4176158;28;20485;-55
2024/03/22 10:02:51;;;;;;;12.80;7.80;;;13.70;86.10;;;;;;4175398;28;20042;-55
2024/03/22 10:04:53;;;;;;;11.63;6.67;;;13.70;86.20;;;;;;4176612;28;20057;-58
2024/03/22 10:06:54;;;;;;;11.00;6.43;;;13.70;86.20;;;;;;4175406;28;20099;-55
2024/03/22 10:08:59;;;;;;;11.67;7.17;;;13.70;86.30;;;;;;4178724;28;20029;-53
2024/03/22 10:11:03;;;;;;;11.37;5.87;;;13.90;86.30;;;;;;4178429;28;20056;-54
2024/03/22 10:13:04;;;;;;;12.13;6.60;;;14.20;86.20;;;;;;4179134;28;20037;-50
2024/03/22 10:15:09;;;;;;;10.60;6.10;;;14.30;85.80;;;;;;4178860;28;20033;-53
2024/03/22 10:17:10;;;;;;;15.90;7.13;;;14.50;85.80;;;;;;4179280;28;20071;-56
2024/03/22 10:19:11;;;;;;;8.97;6.00;;;14.70;85.80;;;;;;4179497;28;20079;-57
2024/03/22 10:21:21;;;;;;;11.47;5.97;;;14.50;86.00;;;;;;4178294;28;20029;-60
2024/03/22 10:23:22;;;;;;;10.77;6.10;;;14.60;85.80;;;;;;4179419;28;20104;-58